Bookmark and Share
Track history (hours):
 

Pine Galaxy

Last reported at 2014-Apr-20 04:33 UTC. Time now 2014-Apr-20 05:50 UTC.
Position N 37°37' W 122°53'.

Length 147 m; draft 8.7 m.

Type: Ship (hazmat cat B). MMSI: 311772000.

NotesDate/timePositionNaut miles runAvg speedWind from/ knotsBaromVisibWave heightAir tempDewpointWater temp
2014-Apr-20 04:33N 37°37' W 122°53'8 8.5
2014-Apr-20 03:33N 37°33' W 123°02'8 8.2
2014-Apr-20 02:33N 37°32' W 123°12'10 7.8
2014-Apr-20 01:17N 37°32' W 123°24'7 6.7
2014-Apr-20 00:15N 37°32' W 123°33'5 6.5
2014-Apr-19 23:28N 37°32' W 123°40'7 6.5
2014-Apr-19 22:27N 37°32' W 123°48'11 8.4
2014-Apr-19 21:09N 37°33' W 124°02'6 8.8
2014-Apr-19 20:28N 37°33' W 124°09'9 9.9
2014-Apr-19 19:33N 37°34' W 124°21'1412.6
2014-Apr-19 18:28N 37°42' W 124°35'1212.6
2014-Apr-19 17:32N 37°48' W 124°48'1413.0
2014-Apr-19 16:25N 37°55' W 125°04'1212.5
2014-Apr-19 15:28N 38°01' W 125°17'  
2014-Apr-16 04:20N 54°09' W 131°02'1112.3
2014-Apr-16 03:29N 54°19' W 130°57'1111.9
2014-Apr-16 02:33N 54°15' W 130°40'1110.7
2014-Apr-16 01:33N 54°15' W 130°21'2 1.9
2014-Apr-16 00:31N 54°17' W 130°22'0 0.0
2014-Apr-15 23:31N 54°17' W 130°22'0 0.0
2014-Apr-15 22:31N 54°17' W 130°22'0 0.0
2014-Apr-15 21:31N 54°17' W 130°22'0 0.0
2014-Apr-15 20:31N 54°17' W 130°22'0 0.0
2014-Apr-15 19:31N 54°17' W 130°22'0 0.0
2014-Apr-15 18:31N 54°17' W 130°22'0 0.0
2014-Apr-15 17:31N 54°17' W 130°22'0 0.0
2014-Apr-15 16:31N 54°17' W 130°22'0 0.0
2014-Apr-15 15:31N 54°17' W 130°22'0 0.0
2014-Apr-15 14:31N 54°17' W 130°22'0 0.0
2014-Apr-15 12:32N 54°17' W 130°22'0 0.0
2014-Apr-15 11:32N 54°17' W 130°22'0 0.0
2014-Apr-15 10:32N 54°17' W 130°22'0 0.0
2014-Apr-15 09:32N 54°17' W 130°22'0 0.0
2014-Apr-15 08:32N 54°17' W 130°22'0 0.0
2014-Apr-15 07:32N 54°17' W 130°22'0 0.0
2014-Apr-15 06:32N 54°17' W 130°22'0 0.0
2014-Apr-15 05:32N 54°17' W 130°22'0 0.0
2014-Apr-15 03:32N 54°17' W 130°22'0 0.0
2014-Apr-15 02:32N 54°17' W 130°22'0 0.0
2014-Apr-15 01:32N 54°17' W 130°22'0 0.0
2014-Apr-15 00:32N 54°17' W 130°22'0 0.0
2014-Apr-14 23:32N 54°17' W 130°22'0 0.0
2014-Apr-14 22:32N 54°17' W 130°22'0 0.0
2014-Apr-14 21:32N 54°17' W 130°22'2 2.4
2014-Apr-14 20:33N 54°15' W 130°21'1010.4
2014-Apr-14 19:34N 54°15' W 130°39'1212.2
2014-Apr-14 18:33N 54°20' W 130°58'  

Dump ship's entire track history

sailing weather and tide predictions

Pine Galaxy — C6TT5 — position and weather